Terminal Aerodrome Forecast
Issued by NWS San Angelo, TX

Home | Current Version | Previous Version | Text Only | Print | Product List | Glossary On
Versions: 1 2 3 4 5 6 7 8 9 10 11 12 13 14 15 16
736
FTUS44 KSJT 221739
TAFSJT
TAF
KSJT 221739Z 2218/2318 18013G22KT P6SM SCT060
     FM230100 15011KT P6SM SKC
     FM231000 14011KT P6SM SCT025=

USA.gov is the U.S. government's official web portal to all federal, state and local government web resources and services.